createdAt,value
2022-12-03T00:00:13.432Z,17.97
2022-12-03T00:02:41.985Z,17.74
2022-12-03T00:05:11.660Z,18.20
2022-12-03T00:07:40.377Z,18.22
2022-12-03T00:10:08.763Z,18.10
2022-12-03T00:12:36.781Z,18.01
2022-12-03T00:15:05.628Z,18.10
2022-12-03T00:17:33.267Z,17.83
2022-12-03T00:20:01.327Z,17.82
2022-12-03T00:22:29.117Z,18.18
2022-12-03T00:24:56.975Z,17.92
2022-12-03T00:27:24.823Z,18.16
2022-12-03T00:29:52.833Z,18.23
2022-12-03T00:32:20.778Z,17.96
2022-12-03T00:34:48.514Z,18.19
2022-12-03T00:37:18.289Z,17.91
2022-12-03T00:39:46.618Z,17.90
2022-12-03T00:42:14.511Z,17.57
2022-12-03T00:44:42.332Z,17.87
2022-12-03T00:47:10.469Z,17.61
2022-12-03T00:49:39.134Z,17.61
2022-12-03T00:52:06.766Z,17.80
2022-12-03T00:54:34.800Z,17.72
2022-12-03T00:57:02.532Z,17.56
2022-12-03T00:59:30.173Z,17.71
2022-12-03T01:01:57.980Z,17.89
2022-12-03T01:04:25.825Z,18.01
2022-12-03T01:06:53.721Z,17.85
2022-12-03T01:09:21.762Z,17.64
2022-12-03T01:11:49.623Z,18.01
2022-12-03T01:14:19.498Z,17.86
2022-12-03T01:16:48.137Z,17.70
2022-12-03T01:19:17.024Z,17.58
2022-12-03T01:21:47.602Z,17.97
2022-12-03T01:24:15.544Z,17.96
2022-12-03T01:26:43.520Z,17.97
2022-12-03T01:29:11.256Z,17.92
2022-12-03T01:31:57.473Z,18.01
2022-12-03T01:34:25.169Z,17.93
2022-12-03T01:36:52.945Z,17.76
2022-12-03T01:39:20.809Z,17.87
2022-12-03T01:41:50.526Z,17.88
2022-12-03T01:44:27.519Z,17.58
2022-12-03T01:46:57.657Z,17.87
2022-12-03T01:49:30.316Z,17.86
2022-12-03T01:51:59.204Z,17.20
2022-12-03T01:54:31.588Z,17.66
2022-12-03T01:56:59.251Z,17.40
2022-12-03T01:59:34.607Z,17.69
2022-12-03T02:02:19.323Z,17.69
2022-12-03T02:04:47.248Z,17.75
2022-12-03T02:07:35.222Z,17.80
2022-12-03T02:10:04.485Z,17.72
2022-12-03T02:12:38.259Z,17.73
2022-12-03T02:15:07.197Z,17.46
2022-12-03T02:17:35.397Z,17.84
2022-12-03T02:20:05.417Z,17.13
2022-12-03T02:23:01.763Z,17.72
2022-12-03T02:25:32.552Z,17.53
2022-12-03T02:28:00.987Z,17.70
2022-12-03T02:30:30.423Z,17.73
2022-12-03T02:32:58.949Z,17.54
2022-12-03T02:35:33.759Z,17.70
2022-12-03T02:38:19.441Z,17.44
2022-12-03T02:40:50.210Z,17.33
2022-12-03T02:43:20.371Z,17.78
2022-12-03T02:45:53.380Z,17.54
2022-12-03T02:48:44.337Z,17.39
2022-12-03T02:51:12.083Z,17.51
2022-12-03T02:53:44.864Z,17.42
2022-12-03T02:56:15.287Z,17.69
2022-12-03T02:58:45.393Z,17.69
2022-12-03T03:01:15.536Z,17.70
2022-12-03T03:03:45.022Z,17.66
2022-12-03T03:06:13.423Z,17.60
2022-12-03T03:08:42.547Z,17.49
2022-12-03T03:11:10.515Z,17.42
2022-12-03T03:13:39.324Z,17.38
2022-12-03T03:16:07.794Z,17.45
2022-12-03T03:18:36.269Z,17.25
2022-12-03T03:21:05.222Z,17.58
2022-12-03T03:23:33.237Z,17.54
2022-12-03T03:26:06.012Z,17.44
2022-12-03T03:28:41.732Z,17.56
2022-12-03T03:31:12.969Z,17.51
2022-12-03T03:33:43.151Z,17.21
2022-12-03T03:36:12.594Z,17.36
2022-12-03T03:38:42.034Z,17.71
2022-12-03T03:41:11.139Z,17.73
2022-12-03T03:43:40.951Z,17.19
2022-12-03T03:46:09.803Z,17.36
2022-12-03T03:48:38.537Z,17.55
2022-12-03T03:51:10.006Z,17.59
2022-12-03T03:53:42.521Z,17.62
2022-12-03T03:56:11.034Z,17.31
2022-12-03T03:58:38.944Z,17.48
2022-12-03T04:01:07.550Z,17.48
2022-12-03T04:03:36.086Z,17.50
2022-12-03T04:06:05.502Z,17.40
2022-12-03T04:08:33.405Z,17.13
2022-12-03T04:11:21.316Z,17.58
2022-12-03T04:13:49.104Z,17.34
2022-12-03T04:16:16.956Z,17.36
2022-12-03T04:18:44.859Z,17.47
2022-12-03T04:21:36.709Z,17.45
2022-12-03T04:24:06.362Z,17.41
2022-12-03T04:26:53.319Z,17.18
2022-12-03T04:29:21.867Z,17.42
2022-12-03T04:32:09.212Z,17.32
2022-12-03T04:34:55.616Z,17.10
2022-12-03T04:37:23.455Z,17.29
2022-12-03T04:39:51.576Z,17.32
2022-12-03T04:42:19.417Z,17.03
2022-12-03T04:44:47.321Z,17.38
2022-12-03T04:47:20.709Z,17.12
2022-12-03T04:49:52.183Z,16.97
2022-12-03T04:52:21.092Z,17.37
2022-12-03T04:54:48.769Z,17.35
2022-12-03T04:57:16.721Z,17.36
2022-12-03T04:59:45.768Z,16.99
2022-12-03T05:02:13.519Z,16.97
2022-12-03T05:04:41.271Z,16.94
2022-12-03T05:07:08.956Z,17.04
2022-12-03T05:09:36.751Z,17.29
2022-12-03T05:12:04.855Z,17.02
2022-12-03T05:14:32.614Z,17.12
2022-12-03T05:17:00.381Z,16.98
2022-12-03T05:19:48.255Z,17.04
2022-12-03T05:22:15.879Z,17.22
2022-12-03T05:24:43.620Z,17.26
2022-12-03T05:27:11.411Z,17.22
2022-12-03T05:29:39.120Z,16.80
2022-12-03T05:32:07.152Z,17.22
2022-12-03T05:34:34.868Z,17.23
2022-12-03T05:37:03.200Z,17.20
2022-12-03T05:39:31.109Z,17.12
2022-12-03T05:42:17.544Z,17.26
2022-12-03T05:44:45.594Z,17.22
2022-12-03T05:47:13.519Z,17.13
2022-12-03T05:49:41.690Z,17.32
2022-12-03T05:52:09.606Z,17.13
2022-12-03T05:54:37.513Z,17.51
2022-12-03T05:57:05.675Z,17.53
2022-12-03T05:59:33.320Z,17.41
2022-12-03T06:02:01.082Z,17.24
2022-12-03T06:04:28.986Z,17.22
2022-12-03T06:06:57.241Z,17.27
2022-12-03T06:09:27.426Z,17.56
2022-12-03T06:11:55.270Z,17.26
2022-12-03T06:14:23.154Z,17.28
2022-12-03T06:16:50.969Z,17.25
2022-12-03T06:19:20.232Z,17.39
2022-12-03T06:21:48.026Z,17.59
2022-12-03T06:24:15.666Z,17.32
2022-12-03T06:26:43.360Z,17.14
2022-12-03T06:29:11.135Z,17.34
2022-12-03T06:31:38.798Z,17.61
2022-12-03T06:34:07.343Z,17.61
2022-12-03T06:36:35.158Z,17.37
2022-12-03T06:39:02.827Z,17.70
2022-12-03T06:41:31.393Z,17.75
2022-12-03T06:43:59.088Z,17.70
2022-12-03T06:46:26.911Z,17.78
2022-12-03T06:48:54.706Z,17.71
2022-12-03T06:51:23.201Z,17.58
2022-12-03T06:53:50.827Z,17.65
2022-12-03T06:56:22.133Z,17.59
2022-12-03T06:58:50.198Z,17.30
2022-12-03T07:01:18.126Z,17.39
2022-12-03T07:03:45.932Z,17.47
2022-12-03T07:06:13.862Z,17.37
2022-12-03T07:08:41.679Z,17.24
2022-12-03T07:11:30.306Z,17.07
2022-12-03T07:14:05.464Z,17.38
2022-12-03T07:16:35.349Z,17.24
2022-12-03T07:19:05.170Z,17.31
2022-12-03T07:21:32.889Z,17.27
2022-12-03T07:24:00.788Z,17.34
2022-12-03T07:26:28.813Z,17.32
2022-12-03T07:28:56.530Z,17.03
2022-12-03T07:31:24.493Z,16.98
2022-12-03T07:33:52.344Z,17.28
2022-12-03T07:36:20.686Z,17.15
2022-12-03T07:38:48.710Z,17.18
2022-12-03T07:41:16.913Z,17.21
2022-12-03T07:43:45.465Z,17.63
2022-12-03T07:46:13.174Z,17.52
2022-12-03T07:48:41.133Z,17.66
2022-12-03T07:51:14.247Z,17.72
2022-12-03T07:53:43.273Z,17.69
2022-12-03T07:56:11.478Z,17.40
2022-12-03T07:58:39.543Z,17.66
2022-12-03T08:01:07.400Z,17.65
2022-12-03T08:03:35.204Z,17.34
2022-12-03T08:06:03.215Z,17.61
2022-12-03T08:08:31.576Z,17.58
2022-12-03T08:11:02.216Z,17.40
2022-12-03T08:13:30.064Z,17.63
2022-12-03T08:16:01.132Z,17.32
2022-12-03T08:18:29.117Z,17.75
2022-12-03T08:20:57.694Z,17.52
2022-12-03T08:23:28.426Z,17.77
2022-12-03T08:25:56.193Z,17.78
2022-12-03T08:28:28.511Z,17.73
2022-12-03T08:31:07.540Z,17.85
2022-12-03T08:33:37.859Z,17.80
2022-12-03T08:36:30.834Z,17.78
2022-12-03T08:39:16.615Z,17.71
2022-12-03T08:42:14.401Z,17.47
2022-12-03T08:44:42.089Z,17.54
2022-12-03T08:47:09.902Z,17.96
2022-12-03T08:49:38.026Z,17.57
2022-12-03T08:52:33.363Z,17.99
2022-12-03T08:55:23.386Z,17.83
2022-12-03T08:57:51.036Z,17.79
2022-12-03T09:00:24.340Z,18.14
2022-12-03T09:02:55.770Z,18.10
2022-12-03T09:05:27.918Z,17.96
2022-12-03T09:07:55.640Z,17.82
2022-12-03T09:10:23.569Z,18.14
2022-12-03T09:12:51.302Z,18.03
2022-12-03T09:15:18.928Z,18.15
2022-12-03T09:17:49.175Z,18.10
2022-12-03T09:20:16.999Z,18.21
2022-12-03T09:22:44.728Z,18.21
2022-12-03T09:25:12.453Z,18.18
2022-12-03T09:27:40.112Z,18.17
2022-12-03T09:30:08.191Z,18.15
2022-12-03T09:32:35.883Z,18.30
2022-12-03T09:35:04.024Z,18.32
2022-12-03T09:37:32.216Z,18.28
2022-12-03T09:40:00.297Z,18.15
2022-12-03T09:42:28.349Z,18.41
2022-12-03T09:44:56.196Z,18.47
2022-12-03T09:47:25.302Z,18.50
2022-12-03T09:49:53.350Z,18.09
2022-12-03T09:52:27.953Z,18.51
2022-12-03T09:54:56.111Z,18.76
2022-12-03T09:57:24.493Z,18.89
2022-12-03T09:59:52.677Z,18.85
2022-12-03T10:02:31.122Z,18.92
2022-12-03T10:04:59.091Z,18.91
2022-12-03T10:07:26.940Z,18.91
2022-12-03T10:09:54.952Z,19.19
2022-12-03T10:12:24.805Z,18.87
2022-12-03T10:14:54.571Z,19.19
2022-12-03T10:17:22.558Z,19.20
2022-12-03T10:19:51.896Z,18.86
2022-12-03T10:22:19.938Z,19.32
2022-12-03T10:25:14.837Z,19.37
2022-12-03T10:27:43.041Z,19.18
2022-12-03T10:30:19.942Z,19.48
2022-12-03T10:32:50.470Z,19.32
2022-12-03T10:35:22.079Z,19.45
2022-12-03T10:38:28.441Z,19.22
2022-12-03T10:40:56.013Z,19.15
2022-12-03T10:43:25.782Z,19.46
2022-12-03T10:46:03.884Z,19.41
2022-12-03T10:48:32.202Z,19.48
2022-12-03T10:51:04.372Z,19.48
2022-12-03T10:53:34.584Z,19.37
2022-12-03T10:56:06.106Z,19.21
2022-12-03T10:58:41.012Z,19.06
2022-12-03T11:01:25.731Z,19.04
2022-12-03T11:04:01.426Z,19.03
2022-12-03T11:06:31.463Z,19.17
2022-12-03T11:09:03.839Z,19.15
2022-12-03T11:11:34.749Z,19.21
2022-12-03T11:14:04.091Z,19.29
2022-12-03T11:16:41.077Z,19.35
2022-12-03T11:19:39.114Z,19.30
2022-12-03T11:22:06.979Z,19.33
2022-12-03T11:24:36.390Z,18.95
2022-12-03T11:27:04.123Z,19.32
2022-12-03T11:29:54.463Z,19.44
2022-12-03T11:32:59.517Z,19.50
2022-12-03T11:35:36.392Z,19.46
2022-12-03T11:38:38.467Z,19.39
2022-12-03T11:41:18.879Z,19.13
2022-12-03T11:43:53.634Z,19.19
2022-12-03T11:46:25.008Z,19.16
2022-12-03T11:48:55.813Z,19.20
2022-12-03T11:51:27.307Z,19.22
2022-12-03T11:53:57.969Z,19.24
2022-12-03T11:56:30.903Z,19.02
2022-12-03T11:59:05.497Z,19.21
2022-12-03T12:01:39.378Z,19.20
2022-12-03T12:04:27.115Z,19.24
2022-12-03T12:06:54.698Z,19.26
2022-12-03T12:09:55.487Z,19.31
2022-12-03T12:12:38.691Z,19.08
2022-12-03T12:15:41.888Z,19.32
2022-12-03T12:18:42.099Z,19.26
2022-12-03T12:21:48.629Z,19.26
2022-12-03T12:24:36.652Z,19.25
2022-12-03T12:27:09.236Z,19.23
2022-12-03T12:29:38.863Z,19.21
2022-12-03T12:32:09.873Z,19.19
2022-12-03T12:34:39.273Z,18.45
2022-12-03T12:37:33.955Z,19.07
2022-12-03T12:40:11.734Z,19.18
2022-12-03T12:42:50.337Z,19.12
2022-12-03T12:45:26.532Z,19.20
2022-12-03T12:48:13.437Z,19.18
2022-12-03T12:50:43.806Z,19.18
2022-12-03T12:53:11.541Z,19.16
2022-12-03T12:55:40.342Z,19.06
2022-12-03T12:58:15.216Z,19.12
2022-12-03T13:00:42.979Z,19.15
2022-12-03T13:03:12.865Z,19.05
2022-12-03T13:05:45.621Z,19.02
2022-12-03T13:08:30.352Z,19.05
2022-12-03T13:11:01.467Z,18.86
2022-12-03T13:13:30.707Z,18.95
2022-12-03T13:16:07.262Z,19.02
2022-12-03T13:18:41.528Z,18.88
2022-12-03T13:21:36.796Z,18.94
2022-12-03T13:24:30.282Z,18.97
2022-12-03T13:27:01.699Z,18.91
2022-12-03T13:29:29.514Z,18.68
2022-12-03T13:32:00.241Z,19.05
2022-12-03T13:34:36.951Z,19.01
2022-12-03T13:37:14.373Z,18.81
2022-12-03T13:39:51.085Z,19.15
2022-12-03T13:42:46.701Z,19.17
2022-12-03T13:45:14.897Z,19.21
2022-12-03T13:47:47.670Z,19.25
2022-12-03T13:50:30.646Z,19.27
2022-12-03T13:52:58.184Z,19.23
2022-12-03T13:55:28.666Z,19.18
2022-12-03T13:58:06.836Z,18.97
2022-12-03T14:00:36.114Z,19.22
2022-12-03T14:03:05.190Z,18.95
2022-12-03T14:05:33.073Z,18.97
2022-12-03T14:08:04.008Z,19.23
2022-12-03T14:10:31.814Z,19.23
2022-12-03T14:12:59.493Z,19.07
2022-12-03T14:15:27.179Z,19.09
2022-12-03T14:17:55.093Z,18.97
2022-12-03T14:20:23.060Z,19.32
2022-12-03T14:22:58.852Z,19.03
2022-12-03T14:25:27.209Z,19.18
2022-12-03T14:27:54.790Z,18.92
2022-12-03T14:30:22.639Z,18.98
2022-12-03T14:33:08.759Z,19.23
2022-12-03T14:35:36.592Z,19.07
2022-12-03T14:38:04.369Z,19.10
2022-12-03T14:40:32.247Z,19.24
2022-12-03T14:42:59.914Z,19.21
2022-12-03T14:45:30.053Z,19.06
2022-12-03T14:47:57.740Z,19.22
2022-12-03T14:50:26.522Z,19.29
2022-12-03T14:52:54.274Z,19.32
2022-12-03T14:55:22.395Z,19.28
2022-12-03T14:57:57.825Z,19.04
2022-12-03T15:00:25.644Z,19.27
2022-12-03T15:02:53.241Z,19.47
2022-12-03T15:05:26.618Z,19.15
2022-12-03T15:07:56.662Z,19.37
2022-12-03T15:10:24.502Z,19.40
2022-12-03T15:12:52.167Z,19.30
2022-12-03T15:15:20.009Z,19.35
2022-12-03T15:17:47.787Z,19.38
2022-12-03T15:20:15.717Z,19.46
2022-12-03T15:22:43.572Z,19.51
2022-12-03T15:25:11.505Z,19.48
2022-12-03T15:27:39.072Z,19.32
2022-12-03T15:30:07.718Z,19.41
2022-12-03T15:32:35.576Z,19.36
2022-12-03T15:35:03.240Z,19.23
2022-12-03T15:37:31.092Z,18.79
2022-12-03T15:39:59.072Z,18.66
2022-12-03T15:42:28.271Z,19.16
2022-12-03T15:44:56.689Z,19.06
2022-12-03T15:47:24.452Z,19.17
2022-12-03T15:49:52.381Z,19.10
2022-12-03T15:52:20.440Z,19.26
2022-12-03T15:54:50.302Z,19.22
2022-12-03T15:57:17.882Z,19.34
2022-12-03T15:59:45.621Z,19.04
2022-12-03T16:02:13.601Z,19.29
2022-12-03T16:04:41.382Z,19.33
2022-12-03T16:07:09.934Z,19.27
2022-12-03T16:09:37.913Z,19.27
2022-12-03T16:12:05.746Z,19.30
2022-12-03T16:14:33.827Z,19.09
2022-12-03T16:17:01.661Z,19.28
2022-12-03T16:19:29.376Z,19.12
2022-12-03T16:21:57.364Z,19.02
2022-12-03T16:24:25.642Z,19.30
2022-12-03T16:26:53.209Z,19.28
2022-12-03T16:29:21.013Z,19.08
2022-12-03T16:31:48.717Z,18.72
2022-12-03T16:34:16.765Z,19.08
2022-12-03T16:36:45.944Z,18.96
2022-12-03T16:39:14.278Z,18.76
2022-12-03T16:41:42.192Z,18.68
2022-12-03T16:44:20.341Z,19.07
2022-12-03T16:46:48.149Z,19.03
2022-12-03T16:49:16.106Z,18.72
2022-12-03T16:51:43.829Z,18.79
2022-12-03T16:54:12.072Z,19.08
2022-12-03T16:56:39.636Z,19.10
2022-12-03T16:59:07.484Z,18.78
2022-12-03T17:01:35.344Z,18.05
2022-12-03T17:04:04.380Z,19.00
2022-12-03T17:06:32.061Z,19.04
2022-12-03T17:08:59.664Z,19.00
2022-12-03T17:11:27.523Z,19.09
2022-12-03T17:13:55.156Z,19.05
2022-12-03T17:16:23.133Z,18.95
2022-12-03T17:18:51.080Z,18.89
2022-12-03T17:21:20.123Z,18.68
2022-12-03T17:23:51.172Z,19.06
2022-12-03T17:26:19.381Z,18.64
2022-12-03T17:28:47.495Z,18.65
2022-12-03T17:31:15.332Z,18.95
2022-12-03T17:33:43.216Z,18.97
2022-12-03T17:36:10.970Z,18.87
2022-12-03T17:38:39.416Z,18.74
2022-12-03T17:41:07.812Z,18.95
2022-12-03T17:43:35.684Z,18.93
2022-12-03T17:46:06.840Z,18.71
2022-12-03T17:48:35.021Z,18.88
2022-12-03T17:51:02.746Z,18.53
2022-12-03T17:53:30.305Z,18.66
2022-12-03T17:55:57.977Z,18.60
2022-12-03T17:58:26.899Z,18.86
2022-12-03T18:00:58.792Z,18.97
2022-12-03T18:03:30.237Z,18.86
2022-12-03T18:05:58.059Z,18.90
2022-12-03T18:08:25.809Z,19.06
2022-12-03T18:10:53.691Z,19.05
2022-12-03T18:13:21.729Z,19.06
2022-12-03T18:15:49.575Z,18.82
2022-12-03T18:18:17.457Z,19.02
2022-12-03T18:20:45.127Z,18.39
2022-12-03T18:23:13.171Z,18.93
2022-12-03T18:25:42.112Z,19.03
2022-12-03T18:28:12.951Z,18.45
2022-12-03T18:30:40.791Z,18.58
2022-12-03T18:33:09.080Z,19.04
2022-12-03T18:35:36.788Z,19.06
2022-12-03T18:38:04.662Z,18.70
2022-12-03T18:40:32.285Z,19.05
2022-12-03T18:43:00.227Z,18.93
2022-12-03T18:45:28.733Z,18.87
2022-12-03T18:47:56.515Z,18.97
2022-12-03T18:50:24.329Z,18.61
2022-12-03T18:52:52.138Z,19.00
2022-12-03T18:55:22.683Z,18.97
2022-12-03T18:57:50.313Z,18.97
2022-12-03T19:00:18.401Z,18.88
2022-12-03T19:03:02.507Z,18.95
2022-12-03T19:05:33.345Z,18.90
2022-12-03T19:08:02.057Z,18.69
2022-12-03T19:10:30.045Z,18.69
2022-12-03T19:12:57.846Z,18.50
2022-12-03T19:15:25.648Z,18.57
2022-12-03T19:17:53.591Z,18.65
2022-12-03T19:20:21.562Z,18.93
2022-12-03T19:22:49.256Z,18.95
2022-12-03T19:25:17.230Z,18.76
2022-12-03T19:27:45.073Z,18.62
2022-12-03T19:30:13.108Z,18.71
2022-12-03T19:32:40.816Z,19.04
2022-12-03T19:35:11.588Z,19.07
2022-12-03T19:37:39.326Z,19.00
2022-12-03T19:40:07.695Z,19.00
2022-12-03T19:42:36.209Z,18.86
2022-12-03T19:45:04.770Z,18.78
2022-12-03T19:47:33.974Z,19.18
2022-12-03T19:50:01.697Z,19.15
2022-12-03T19:52:30.055Z,19.25
2022-12-03T19:54:57.617Z,19.24
2022-12-03T19:57:25.373Z,19.18
2022-12-03T19:59:54.952Z,19.22
2022-12-03T20:02:23.022Z,18.59
2022-12-03T20:04:50.953Z,19.11
2022-12-03T20:07:18.699Z,18.92
2022-12-03T20:09:46.388Z,19.16
2022-12-03T20:12:14.052Z,19.23
2022-12-03T20:14:43.190Z,18.70
2022-12-03T20:17:11.341Z,19.23
2022-12-03T20:19:39.108Z,19.25
2022-12-03T20:22:06.815Z,19.16
2022-12-03T20:24:34.589Z,18.90
2022-12-03T20:27:02.613Z,18.89
2022-12-03T20:29:30.601Z,18.88
2022-12-03T20:31:59.896Z,19.21
2022-12-03T20:34:27.760Z,18.87
2022-12-03T20:36:55.507Z,18.99
2022-12-03T20:39:25.854Z,18.90
2022-12-03T20:41:53.829Z,19.04
2022-12-03T20:44:21.721Z,19.10
2022-12-03T20:46:49.698Z,18.66
2022-12-03T20:49:17.357Z,18.62
2022-12-03T20:51:45.303Z,18.62
2022-12-03T20:54:12.862Z,19.05
2022-12-03T20:56:42.076Z,19.09
2022-12-03T20:59:12.944Z,19.09
2022-12-03T21:01:41.517Z,19.11
2022-12-03T21:04:10.982Z,19.02
2022-12-03T21:06:38.684Z,19.03
2022-12-03T21:09:07.898Z,19.12
2022-12-03T21:11:39.163Z,19.04
2022-12-03T21:14:07.814Z,19.13
2022-12-03T21:17:07.377Z,19.15
2022-12-03T21:19:27.328Z,18.94
2022-12-03T21:21:55.110Z,18.97
2022-12-03T21:24:23.171Z,19.05
2022-12-03T21:26:51.112Z,19.14
2022-12-03T21:29:19.043Z,19.07
2022-12-03T21:31:46.769Z,18.85
2022-12-03T21:34:14.735Z,19.05
2022-12-03T21:36:42.671Z,18.42
2022-12-03T21:39:10.659Z,18.51
2022-12-03T21:41:38.362Z,19.04
2022-12-03T21:44:06.095Z,18.80
2022-12-03T21:47:10.773Z,19.00
2022-12-03T21:49:23.492Z,18.87
2022-12-03T21:51:51.330Z,18.90
2022-12-03T21:54:19.412Z,18.93
2022-12-03T21:56:47.368Z,18.98
2022-12-03T21:59:14.975Z,19.03
2022-12-03T22:01:46.926Z,19.03
2022-12-03T22:04:14.980Z,19.03
2022-12-03T22:06:42.636Z,19.02
2022-12-03T22:09:10.506Z,18.84
2022-12-03T22:11:38.220Z,18.85
2022-12-03T22:14:07.228Z,18.92
2022-12-03T22:16:34.981Z,18.82
2022-12-03T22:19:02.733Z,18.79
2022-12-03T22:21:30.500Z,18.78
2022-12-03T22:23:58.358Z,18.94
2022-12-03T22:26:26.625Z,18.85
2022-12-03T22:28:54.359Z,18.90
2022-12-03T22:31:22.276Z,18.73
2022-12-03T22:33:50.069Z,18.63
2022-12-03T22:36:21.565Z,18.61
2022-12-03T22:38:50.587Z,18.77
2022-12-03T22:41:19.563Z,18.85
2022-12-03T22:43:48.249Z,18.86
2022-12-03T22:46:17.004Z,18.85
2022-12-03T22:48:46.424Z,18.86
2022-12-03T22:51:18.538Z,18.84
2022-12-03T22:53:46.716Z,18.79
2022-12-03T22:56:14.774Z,18.69
2022-12-03T22:58:42.444Z,18.83
2022-12-03T23:01:20.522Z,18.51
2022-12-03T23:03:48.504Z,18.56
2022-12-03T23:06:16.677Z,18.72
2022-12-03T23:08:44.384Z,18.69
2022-12-03T23:11:12.843Z,18.75
2022-12-03T23:13:40.683Z,18.58
2022-12-03T23:16:14.266Z,18.69
2022-12-03T23:18:42.501Z,18.40
2022-12-03T23:21:14.432Z,18.52
2022-12-03T23:23:41.994Z,18.31
2022-12-03T23:26:12.229Z,18.58
2022-12-03T23:28:41.271Z,18.42
2022-12-03T23:31:23.314Z,18.58
2022-12-03T23:33:52.237Z,18.49
2022-12-03T23:36:21.361Z,18.53
2022-12-03T23:38:49.580Z,18.34
2022-12-03T23:41:20.683Z,18.52
2022-12-03T23:43:48.589Z,18.42
2022-12-03T23:46:22.509Z,18.47
2022-12-03T23:48:52.258Z,18.20
2022-12-03T23:51:25.015Z,18.46
2022-12-03T23:53:54.542Z,18.10
2022-12-03T23:56:25.813Z,18.31
2022-12-03T23:58:53.831Z,18.25
